Pos.Doss.NomPrenomTempsVit.Moy.Allure Pos. catégCatégorie Points Club
1 2314 Leduc Jerome 00:18:24 16.3 00:03:41 1Débutant H ....... tdch
2 2333 Andre Jean eric 00:18:51 15.92 00:03:46 2Débutant H .......
3 2295 Garin Yves 00:19:19 15.53 00:03:52 3Débutant H ....... ser athl
4 2275 Demarche Christophe 00:19:49 15.14 00:03:58 4Débutant H ....... food2run
5 2298 Olefs Antonino 00:20:12 14.85 00:04:02 5Débutant H ....... jog in attitude
6 2302 Van caelenberg Bruno 00:20:18 14.78 00:04:04 6Débutant H ....... a team
7 2278 Radermecker Arthur 00:21:17 14.1 00:04:15 1Garcons 12 à 15 ans 1000 herve
8 2329 Bodson Francois 00:21:40 13.85 00:04:20 7Débutant H .......
9 301 Bovi Jean-luc 00:21:42 13.82 00:04:20 8Débutant H ....... RFCL
10 235 Kalin Lionel 00:22:07 13.56 00:04:25 2Garcons 12 à 15 ans 938 HF
11 394 Hamiot Florian 00:22:34 13.29 00:04:31 3Garcons 12 à 15 ans 875 HERVE ATHLE
12 2277 Radermecker Tom 00:22:57 13.07 00:04:35 4Garcons 12 à 15 ans 812 herve
13 2263 Dobbelstein William 00:23:07 12.98 00:04:37 ? ....... rfcl
14 2257 Bastagne Jacques 00:23:27 12.79 00:04:41 9Débutant H .......
15 2331 Bonhomme Hugo 00:23:27 12.79 00:04:41 ? ....... rfcl
16 2313 Tombeur Alain 00:23:47 12.61 00:04:45 10Débutant H .......
17 2309 Smets Francis 00:24:07 12.44 00:04:49 11Débutant H ....... brs team
18 2267 Piron Andre 00:24:30 12.24 00:04:54 12Débutant H ....... serunners
19 2303 Belot Luc 00:24:39 12.17 00:04:56 13Débutant H ....... a team
20 2274 Heck Arthur 00:24:44 12.13 00:04:57 5Garcons 12 à 15 ans 750
21 2332 Vanneste Liesbeth 00:24:50 12.08 00:04:58 1Débutante F ....... a team
22 2297 Pierre Arthur 00:25:20 11.84 00:05:04 6Garcons 12 à 15 ans 688
23 2308 Moreau Martin 00:25:35 11.73 00:05:07 14Débutant H .......
24 2264 Dobbelstein Xavier 00:25:44 11.66 00:05:09 15Débutant H .......
25 2273 Vandenbossche Alexandre 00:25:48 11.63 00:05:010 7Garcons 12 à 15 ans 625
26 2286 Monsez Lucas 00:26:32 11.31 00:05:18 8Garcons 12 à 15 ans 562 herve
27 2317 Dewil Jean 00:26:35 11.29 00:05:19 16Débutant H ....... rfcl
28 2296 Mertens Caroline 00:26:36 11.28 00:05:19 2Débutante F ....... ser athl
29 2299 Bragard Romain 00:26:39 11.26 00:05:20 17Débutant H .......
30 2327 Demarteau Arnaud 00:26:40 11.25 00:05:20 18Débutant H .......
31 2307 Duysens Justin 00:26:48 11.19 00:05:22 ? ....... les duys
32 139 Ribant Léa 00:26:48 11.19 00:05:22 1Filles 12 à 15 ans 500 Haute Fagne
33 324 Cresson Thomas 00:26:53 11.16 00:05:23 9Garcons 12 à 15 ans 438 Herve
34 2284 Paulus Jean lou 00:26:54 11.15 00:05:23 19Débutant H ....... serunners
35 2283 Ribant Thierry 00:26:57 11.13 00:05:23 20Débutant H .......
36 2304 Lefort Louise 00:27:04 11.08 00:05:25 ? ....... mehagne
37 2285 Monsez Bastien 00:27:15 11.01 00:05:27 10Garcons 12 à 15 ans 375 herve
38 2306 Duysens Christophe 00:27:21 10.97 00:05:28 21Débutant H ....... les duys
39 2252 Zdych Andrien 00:27:39 10.85 00:05:32 11Garcons 12 à 15 ans 312
40 2270 Fourny Philippe 00:27:54 10.75 00:05:35 22Débutant H ....... serunners
41 2280 Demarche Fabrice 00:28:10 10.65 00:05:38 23Débutant H .......
42 2265 Dobbelstein Gael 00:28:14 10.63 00:05:39 ? .......
43 2291 Gonay Andy 00:28:47 10.42 00:05:45 12Garcons 12 à 15 ans 250
44 2311 Renard Emmanuelle 00:29:09 10.29 00:05:50 3Débutante F .......
45 2325 Cokaiko Arthur 00:29:11 10.28 00:05:50 13Garcons 12 à 15 ans 188
46 2288 Georges Stephane 00:29:18 10.24 00:05:52 24Débutant H .......
47 31 Rigo Aurore 00:29:39 10.12 00:05:56 2Filles 12 à 15 ans 125
48 2259 Robbi Rudy 00:29:51 10.05 00:05:58 25Débutant H ....... serunners
49 2330 Bonhomme Eric 00:30:00 10 00:06:00 26Débutant H .......
50 2310 Dassy Ludivic 00:30:23 9.87 00:06:05 27Débutant H .......
51 2279 Gilles Muriel 00:31:37 9.49 00:06:19 4Débutante F .......
52 2318 Nivarlet Jordane 00:32:00 9.38 00:06:24 5Débutante F .......
53 2293 Cleners Kevin 00:32:00 9.38 00:06:24 28Débutant H .......
54 2312 Demarteau Laetitia 00:32:01 9.37 00:06:24 6Débutante F .......
55 2262 Barla Sophie 00:32:02 9.37 00:06:24 7Débutante F ....... serunners
56 2276 Fievet Manon 00:32:05 9.35 00:06:25 8Débutante F .......
57 2253 Ceglielka Marie 00:32:13 9.31 00:06:27 9Débutante F .......
58 2294 Spagnoli Romy 00:32:52 9.13 00:06:34 10Débutante F ....... jcpmf
59 2287 Nolevaux Sylvie 00:33:03 9.08 00:06:37 11Débutante F .......
60 2281 Matriche Katty 00:33:08 9.05 00:06:38 12Débutante F ....... serunners
61 2272 Janssen Jacqueline 00:33:09 9.05 00:06:38 13Débutante F ....... serunners
62 2282 Van wonterghem Eva 00:33:09 9.05 00:06:38 14Débutante F ....... serunners
63 2322 Mellet Laura 00:33:18 9.01 00:06:40 15Débutante F .......
64 2260 Manset Helene 00:33:23 8.99 00:06:41 16Débutante F .......
65 2328 Pollara Pino 00:33:32 8.95 00:06:42 29Débutant H ....... serunners
66 2266 Delvigne Monique 00:33:36 8.93 00:06:43 17Débutante F ....... serunners
67 2320 Hecht William 00:33:51 8.86 00:06:46 30Débutant H .......
68 2321 Franco Raphaele 00:33:51 8.86 00:06:46 18Débutante F .......
69 2319 Ancion Kevin 00:33:52 8.86 00:06:46 31Débutant H .......
70 2255 Rogister Xavier 00:33:57 8.84 00:06:47 32Débutant H .......
71 2251 Babe Michel 00:34:22 8.73 00:06:52 33Débutant H ....... les rehteux
72 2292 Halleux Melanie 00:34:29 8.7 00:06:54 19Débutante F .......
73 2326 Cokaiko Alice 00:35:09 8.53 00:07:02 3Filles 12 à 15 ans 62
74 2256 Leclou Anne marie 00:35:15 8.51 00:07:03 20Débutante F ....... serunners
75 2261 Kreit Amelie 00:35:25 8.47 00:07:05 21Débutante F .......
76 2315 Gillis Damien 00:36:30 8.22 00:07:18 34Débutant H ....... etoile jupille
77 2324 Cokaiko Amelie 00:36:42 8.17 00:07:20 22Débutante F .......
78 2289 Raskin Alex 00:37:02 8.1 00:07:24 35Débutant H .......
79 2290 Gillis Vinciane 00:38:13 7.85 00:07:39 23Débutante F .......
80 2316 Noel Patrick 00:38:49 7.73 00:07:46 36Débutant H ....... etoile jupille
81 2271 Tonachella Claudia 00:38:53 7.72 00:07:47 ? ....... serunners
82 2323 Cokaiko Anais 00:40:47 7.36 00:08:09 25Débutante F .......
83 2301 Bragard Peter 00:41:18 7.26 00:08:16 37Débutant H .......
84 2268 Bada Christine 00:43:07 6.96 00:08:37 26Débutante F ....... serunners
85 2269 Coune Patrick 00:43:07 6.96 00:08:37 38Débutant H ....... serunners
Jogging de la fete Ayeneux 2017
Distance : 5.0 kms
85 coureurs